Time;durP1;ratioP1;P1;durP2;ratioP2;P2;SDS_P1;SDS_P2;PMS_P1;PMS_P2;Temp;Humidity;BMP_temperature;BMP_pressure;BME280_temperature;BME280_humidity;BME280_pressure;Samples;Min_cycle;Max_cycle;Signal;HPM_P1;HPM_P2
2024/01/16 00:00:08;;;;;;;26.30;16.55;;;10.90;93.20;;;;;;5011958;28;20038;-82
2024/01/16 00:02:34;;;;;;;28.95;17.17;;;10.90;93.10;;;;;;5013252;28;20049;-81
2024/01/16 00:05:00;;;;;;;26.48;17.48;;;11.00;93.20;;;;;;5012958;28;20142;-82
2024/01/16 00:07:26;;;;;;;26.77;16.08;;;11.00;93.10;;;;;;5013474;28;20053;-82
2024/01/16 00:09:53;;;;;;;23.00;16.77;;;11.00;93.20;;;;;;5012993;28;20058;-80
2024/01/16 00:12:19;;;;;;;27.85;16.75;;;11.00;93.20;;;;;;5012672;28;20069;-81
2024/01/16 00:14:45;;;;;;;27.67;18.08;;;11.00;93.30;;;;;;5012717;28;20092;-81
2024/01/16 00:17:11;;;;;;;24.73;16.85;;;11.00;93.20;;;;;;5018926;28;20117;-81
2024/01/16 00:19:37;;;;;;;25.25;17.50;;;11.00;93.20;;;;;;5025743;28;20504;-81
2024/01/16 00:22:04;;;;;;;28.83;18.13;;;11.00;93.20;;;;;;5016648;28;20374;-79
2024/01/16 00:24:30;;;;;;;24.27;17.75;;;11.00;93.20;;;;;;5015891;28;20405;-82
2024/01/16 00:26:56;;;;;;;26.60;18.60;;;11.00;93.30;;;;;;5015976;28;20041;-82
2024/01/16 00:29:22;;;;;;;25.77;17.10;;;11.00;93.20;;;;;;5016481;28;20037;-82
2024/01/16 00:31:48;;;;;;;24.23;16.65;;;11.10;93.20;;;;;;4998509;28;20034;-81
2024/01/16 00:34:14;;;;;;;26.50;18.17;;;11.10;93.20;;;;;;5016780;28;20496;-81
2024/01/16 00:36:40;;;;;;;23.80;17.83;;;11.10;93.10;;;;;;5023813;28;20037;-80
2024/01/16 00:39:07;;;;;;;25.42;17.27;;;11.10;93.00;;;;;;5016156;28;20034;-82
2024/01/16 00:41:32;;;;;;;25.02;17.08;;;11.10;93.20;;;;;;5015777;28;20113;-82
2024/01/16 00:43:58;;;;;;;25.10;17.30;;;11.00;93.10;;;;;;5015678;28;20477;-81
2024/01/16 00:46:24;;;;;;;24.15;17.63;;;11.00;93.20;;;;;;5015961;28;20037;-81
2024/01/16 00:48:49;;;;;;;25.90;17.48;;;11.00;93.00;;;;;;5017195;28;20111;-83
2024/01/16 00:51:15;;;;;;;25.08;17.25;;;11.00;93.10;;;;;;5016599;28;20433;-82
2024/01/16 00:53:42;;;;;;;24.73;16.63;;;11.00;93.10;;;;;;4997835;28;20034;-81
2024/01/16 00:56:07;;;;;;;25.90;17.38;;;10.90;93.20;;;;;;5015417;28;20034;-81
2024/01/16 00:58:33;;;;;;;21.75;16.13;;;10.90;93.20;;;;;;5015256;28;20125;-80
2024/01/16 01:00:59;;;;;;;23.00;17.63;;;10.80;93.20;;;;;;5015630;28;20560;-81
2024/01/16 01:03:24;;;;;;;26.88;16.67;;;10.80;93.30;;;;;;5024610;28;20038;-80
2024/01/16 01:05:50;;;;;;;25.17;16.48;;;10.80;93.20;;;;;;5024132;28;20034;-80
2024/01/16 01:08:16;;;;;;;23.35;16.13;;;10.80;93.30;;;;;;5018617;28;20050;-79
2024/01/16 01:10:42;;;;;;;27.27;16.10;;;10.80;93.30;;;;;;5015675;28;20037;-81
2024/01/16 01:13:08;;;;;;;25.70;16.02;;;10.70;93.20;;;;;;5016033;28;20030;-81
2024/01/16 01:15:34;;;;;;;26.48;17.42;;;10.70;93.20;;;;;;5015305;28;20390;-81
2024/01/16 01:17:59;;;;;;;24.42;16.85;;;10.70;93.20;;;;;;5017010;28;20052;-81
2024/01/16 01:20:25;;;;;;;21.88;16.60;;;10.70;93.30;;;;;;5016146;28;20030;-82
2024/01/16 01:22:51;;;;;;;25.35;18.02;;;10.70;93.30;;;;;;4999758;28;20509;-81
2024/01/16 01:25:17;;;;;;;26.92;17.02;;;10.70;93.40;;;;;;5016910;28;20041;-80
2024/01/16 01:27:42;;;;;;;22.85;17.10;;;10.60;93.40;;;;;;5018875;28;20080;-82
2024/01/16 01:30:12;;;;;;;23.80;17.42;;;10.70;93.40;;;;;;5015802;28;20516;-83
2024/01/16 01:32:38;;;;;;;22.70;16.95;;;10.70;93.10;;;;;;5015067;28;20037;-82
2024/01/16 01:35:05;;;;;;;26.40;17.58;;;10.60;93.50;;;;;;5015105;28;20089;-81
2024/01/16 01:37:31;;;;;;;27.52;17.27;;;10.60;93.40;;;;;;5016963;28;20026;-81
2024/01/16 01:39:57;;;;;;;25.90;17.63;;;10.50;93.40;;;;;;5020400;28;20393;-81
2024/01/16 01:42:23;;;;;;;26.88;18.60;;;10.50;93.50;;;;;;5027014;28;20040;-79
2024/01/16 01:44:49;;;;;;;23.25;16.83;;;10.50;93.50;;;;;;5023458;28;20026;-82
2024/01/16 01:47:15;;;;;;;27.13;17.80;;;10.50;93.40;;;;;;5016456;28;20069;-82
2024/01/16 01:49:41;;;;;;;23.23;16.65;;;10.50;93.30;;;;;;5015221;28;20445;-80
2024/01/16 01:52:07;;;;;;;21.70;16.23;;;10.50;93.40;;;;;;5014894;28;20095;-81
2024/01/16 01:54:36;;;;;;;22.90;16.33;;;10.50;93.90;;;;;;5015515;28;20030;-82
2024/01/16 01:57:03;;;;;;;24.35;16.42;;;10.50;93.70;;;;;;5018890;28;20438;-81
2024/01/16 01:59:30;;;;;;;23.58;16.05;;;10.40;93.30;;;;;;5014525;28;20038;-80
2024/01/16 02:01:56;;;;;;;20.48;15.50;;;10.30;93.70;;;;;;5014947;28;20136;-80
2024/01/16 02:04:24;;;;;;;21.67;15.35;;;10.30;93.70;;;;;;5026326;28;20026;-80
2024/01/16 02:06:50;;;;;;;21.05;15.57;;;10.30;93.80;;;;;;5015680;28;20042;-82
2024/01/16 02:09:16;;;;;;;21.27;15.18;;;10.20;93.60;;;;;;5014425;28;20148;-81
2024/01/16 02:11:42;;;;;;;20.83;14.50;;;10.20;93.70;;;;;;5014541;28;20490;-81
2024/01/16 02:14:08;;;;;;;21.08;15.30;;;10.20;93.70;;;;;;5014549;28;20030;-80
2024/01/16 02:16:39;;;;;;;21.67;14.60;;;10.20;93.80;;;;;;4996611;28;20034;-82
2024/01/16 02:19:05;;;;;;;22.42;14.57;;;10.20;93.90;;;;;;5013973;28;20084;-81
2024/01/16 02:21:47;;;;;;;18.05;14.43;;;10.20;93.60;;;;;;5013969;28;20056;-82
2024/01/16 02:24:13;;;;;;;17.13;13.77;;;10.20;93.80;;;;;;5013994;28;20178;-81
2024/01/16 02:26:39;;;;;;;23.30;14.25;;;10.20;93.70;;;;;;5013884;28;20062;-83
2024/01/16 02:29:05;;;;;;;18.67;14.43;;;10.10;93.60;;;;;;5013775;28;20065;-80
2024/01/16 02:31:32;;;;;;;19.98;14.23;;;10.10;93.70;;;;;;5013720;28;20034;-81
2024/01/16 02:33:58;;;;;;;22.67;14.30;;;10.10;93.80;;;;;;5013497;28;20378;-81
2024/01/16 02:36:24;;;;;;;19.98;14.02;;;10.10;93.70;;;;;;5013732;28;20190;-80
2024/01/16 02:38:50;;;;;;;18.63;12.93;;;10.10;93.90;;;;;;5013436;28;20030;-82
2024/01/16 02:41:16;;;;;;;24.08;14.32;;;10.10;93.70;;;;;;5014229;28;20238;-82
2024/01/16 02:43:43;;;;;;;19.85;13.27;;;10.10;93.80;;;;;;4999883;28;20092;-80
2024/01/16 02:46:08;;;;;;;18.50;13.40;;;10.10;93.70;;;;;;5017033;28;20065;-80
2024/01/16 02:48:35;;;;;;;22.25;12.85;;;10.10;93.70;;;;;;5019230;28;20030;-81
2024/01/16 02:51:01;;;;;;;20.92;12.85;;;10.00;93.80;;;;;;4983066;28;20054;-81
2024/01/16 02:53:28;;;;;;;17.88;12.15;;;9.90;94.20;;;;;;4999547;28;20117;-81
2024/01/16 02:55:54;;;;;;;16.77;11.70;;;9.90;94.20;;;;;;4997498;28;20038;-82
2024/01/16 02:58:21;;;;;;;21.67;12.82;;;10.00;93.70;;;;;;4993572;28;20507;-80
2024/01/16 03:00:47;;;;;;;18.13;11.80;;;10.00;93.80;;;;;;4993692;28;20466;-81
2024/01/16 03:03:14;;;;;;;16.35;11.85;;;10.00;93.80;;;;;;4994173;28;20030;-82
2024/01/16 03:05:40;;;;;;;18.52;11.77;;;10.00;93.80;;;;;;4994009;28;20046;-80
2024/01/16 03:08:06;;;;;;;19.00;12.27;;;10.00;93.70;;;;;;4994136;28;20039;-81
2024/01/16 03:10:32;;;;;;;20.77;11.85;;;10.00;93.70;;;;;;4993640;28;20517;-81
2024/01/16 03:12:58;;;;;;;15.52;11.45;;;10.00;93.50;;;;;;4997225;28;20039;-80
2024/01/16 03:15:24;;;;;;;21.73;11.48;;;10.00;93.60;;;;;;4994386;28;20041;-84
2024/01/16 03:17:50;;;;;;;20.33;11.55;;;10.00;93.60;;;;;;4975975;28;20375;-81
2024/01/16 03:20:18;;;;;;;16.02;11.75;;;10.00;93.70;;;;;;4976243;28;20030;-84
2024/01/16 03:22:44;;;;;;;23.30;10.93;;;10.00;93.60;;;;;;4993791;28;20031;-80
2024/01/16 03:25:13;;;;;;;16.58;10.63;;;10.00;93.90;;;;;;4993469;28;20362;-81
2024/01/16 03:27:39;;;;;;;16.15;10.80;;;10.00;93.50;;;;;;4993203;28;20133;-82
2024/01/16 03:30:06;;;;;;;14.18;10.80;;;10.00;93.70;;;;;;4993175;28;20532;-81
2024/01/16 03:32:32;;;;;;;17.13;11.38;;;10.00;93.60;;;;;;4976155;28;20379;-81
2024/01/16 03:34:58;;;;;;;16.85;12.27;;;10.00;93.60;;;;;;4996239;28;20065;-80
2024/01/16 03:37:23;;;;;;;21.48;11.93;;;9.90;94.00;;;;;;5007134;28;20038;-80
2024/01/16 03:39:50;;;;;;;19.83;11.52;;;9.90;94.10;;;;;;4996048;28;20037;-81
2024/01/16 03:42:15;;;;;;;17.23;10.82;;;9.80;94.10;;;;;;4993468;28;20046;-80
2024/01/16 03:44:42;;;;;;;14.98;10.20;;;9.80;94.10;;;;;;4993286;28;20030;-82
2024/01/16 03:47:08;;;;;;;17.90;11.05;;;9.90;94.20;;;;;;4975836;28;20371;-81
2024/01/16 03:49:34;;;;;;;17.80;10.93;;;9.90;94.20;;;;;;4982728;28;20049;-80
2024/01/16 03:52:00;;;;;;;17.60;10.55;;;9.90;94.00;;;;;;5012771;28;20034;-81
2024/01/16 03:54:26;;;;;;;21.13;11.07;;;9.90;94.20;;;;;;5013978;28;20030;-80
2024/01/16 03:56:53;;;;;;;15.77;9.98;;;9.80;94.00;;;;;;4998604;28;20053;-80
2024/01/16 03:59:19;;;;;;;18.90;10.73;;;9.80;94.10;;;;;;5016192;28;20060;-80
2024/01/16 04:01:45;;;;;;;14.50;10.18;;;9.70;94.20;;;;;;4998558;28;20033;-81
2024/01/16 04:04:11;;;;;;;16.70;10.23;;;9.70;94.20;;;;;;5016222;28;20038;-81
2024/01/16 04:06:37;;;;;;;17.73;9.85;;;9.70;94.00;;;;;;5015775;28;20097;-82
2024/01/16 04:09:04;;;;;;;19.00;9.63;;;9.70;94.20;;;;;;5016305;28;20061;-81
2024/01/16 04:11:30;;;;;;;14.55;9.13;;;9.60;94.10;;;;;;5015882;28;20026;-82
2024/01/16 04:13:56;;;;;;;14.65;9.38;;;9.60;94.20;;;;;;5015861;28;20049;-82
2024/01/16 04:16:22;;;;;;;13.98;9.05;;;9.60;94.20;;;;;;5015774;28;20038;-80
2024/01/16 04:18:48;;;;;;;17.23;9.32;;;9.50;94.00;;;;;;5015827;28;20037;-82
2024/01/16 04:21:14;;;;;;;16.05;9.60;;;9.50;94.10;;;;;;5015755;28;20469;-81
2024/01/16 04:23:42;;;;;;;15.27;9.50;;;9.50;94.10;;;;;;5016127;28;20118;-82
2024/01/16 04:26:07;;;;;;;13.23;8.85;;;9.50;94.30;;;;;;5026823;28;20034;-80
2024/01/16 04:28:33;;;;;;;16.90;9.25;;;9.60;94.00;;;;;;5016309;28;20117;-81
2024/01/16 04:31:01;;;;;;;14.68;9.10;;;9.50;94.00;;;;;;5015789;28;20033;-81
2024/01/16 04:33:27;;;;;;;17.02;8.68;;;9.50;94.10;;;;;;5015447;28;20073;-82
2024/01/16 04:35:53;;;;;;;16.80;9.57;;;9.50;94.10;;;;;;5015610;28;20454;-81
2024/01/16 04:38:19;;;;;;;19.83;9.45;;;9.50;94.20;;;;;;4997809;28;20037;-80
2024/01/16 04:40:44;;;;;;;17.00;9.15;;;9.50;94.10;;;;;;5015662;28;20044;-80
2024/01/16 04:43:10;;;;;;;19.52;9.27;;;9.40;94.10;;;;;;5015585;28;20022;-82
2024/01/16 04:45:36;;;;;;;21.75;8.88;;;9.40;94.00;;;;;;5014100;28;20085;-81
2024/01/16 04:48:02;;;;;;;15.07;8.77;;;9.30;93.90;;;;;;5015374;28;20433;-81
2024/01/16 04:50:31;;;;;;;14.38;8.57;;;9.30;93.90;;;;;;5014924;28;20084;-80
2024/01/16 04:52:59;;;;;;;18.20;8.85;;;9.40;94.00;;;;;;4997801;28;20030;-80
2024/01/16 04:55:26;;;;;;;17.10;9.02;;;9.30;94.10;;;;;;4998276;28;20045;-82
2024/01/16 04:57:52;;;;;;;17.63;8.07;;;9.30;94.00;;;;;;5015729;28;20564;-81
2024/01/16 05:00:18;;;;;;;13.00;7.95;;;9.20;93.90;;;;;;5015529;28;20038;-81
2024/01/16 05:02:44;;;;;;;11.57;7.70;;;9.20;93.90;;;;;;5019958;28;20041;-81
2024/01/16 05:05:09;;;;;;;19.13;8.18;;;9.20;94.00;;;;;;5022144;28;20034;-81
2024/01/16 05:07:35;;;;;;;11.48;6.80;;;9.20;94.00;;;;;;5021190;28;20057;-81
2024/01/16 05:10:01;;;;;;;17.20;7.40;;;9.20;93.90;;;;;;5017310;28;20030;-81
2024/01/16 05:12:27;;;;;;;14.23;6.97;;;9.20;94.10;;;;;;5017642;28;20154;-81
2024/01/16 05:14:53;;;;;;;16.92;7.57;;;9.20;93.90;;;;;;5014267;28;20065;-81
2024/01/16 05:17:18;;;;;;;12.90;7.47;;;9.20;93.90;;;;;;5024894;28;20030;-81
2024/01/16 05:19:44;;;;;;;14.70;7.10;;;9.20;94.00;;;;;;5016167;28;20057;-82
2024/01/16 05:22:10;;;;;;;17.67;7.88;;;9.20;93.80;;;;;;5015675;28;20106;-81
2024/01/16 05:24:36;;;;;;;13.45;7.25;;;9.20;93.80;;;;;;5015678;28;20505;-81
2024/01/16 05:27:04;;;;;;;16.73;7.28;;;9.20;94.00;;;;;;5015009;28;20057;-80
2024/01/16 05:29:31;;;;;;;12.43;7.57;;;9.30;94.00;;;;;;5014993;28;20034;-81
2024/01/16 05:31:57;;;;;;;17.25;7.55;;;9.20;93.90;;;;;;5016652;28;20042;-81
2024/01/16 05:34:22;;;;;;;13.52;7.53;;;9.20;94.00;;;;;;5015654;28;20026;-81
2024/01/16 05:36:48;;;;;;;14.82;8.80;;;9.20;94.00;;;;;;5014457;28;20375;-80
2024/01/16 05:39:14;;;;;;;16.05;9.57;;;9.20;94.00;;;;;;5016488;28;20149;-81
2024/01/16 05:41:41;;;;;;;16.95;8.48;;;9.20;93.90;;;;;;5014551;28;20371;-81
2024/01/16 05:44:06;;;;;;;13.25;7.93;;;9.20;94.00;;;;;;5014656;28;20386;-82
2024/01/16 05:46:32;;;;;;;14.07;8.13;;;9.20;94.00;;;;;;4996760;28;20046;-82
2024/01/16 05:48:58;;;;;;;14.15;8.18;;;9.30;93.90;;;;;;4997018;28;20076;-81
2024/01/16 05:51:25;;;;;;;13.75;8.30;;;9.20;94.00;;;;;;4996644;28;20520;-82
2024/01/16 05:53:51;;;;;;;18.98;9.05;;;9.30;94.10;;;;;;5016577;28;20053;-81
2024/01/16 05:56:16;;;;;;;16.88;7.68;;;9.20;94.00;;;;;;5008749;28;20120;-80
2024/01/16 05:58:42;;;;;;;19.38;9.02;;;9.20;94.20;;;;;;5021994;28;20069;-81
2024/01/16 06:01:08;;;;;;;16.75;8.63;;;9.20;94.00;;;;;;5014600;28;20508;-80
2024/01/16 06:03:33;;;;;;;17.23;8.10;;;9.20;93.90;;;;;;5016159;28;20038;-81
2024/01/16 06:05:59;;;;;;;21.02;7.07;;;9.20;93.90;;;;;;5025459;28;20053;-81
2024/01/16 06:08:25;;;;;;;14.93;7.85;;;9.20;93.90;;;;;;5026201;28;20162;-80
2024/01/16 06:10:51;;;;;;;10.73;6.68;;;9.20;94.00;;;;;;5030382;28;20081;-81
2024/01/16 06:13:19;;;;;;;16.65;7.88;;;9.20;93.90;;;;;;5019575;28;20065;-82
2024/01/16 06:15:45;;;;;;;16.70;7.55;;;9.20;93.90;;;;;;5015086;28;20343;-81
2024/01/16 06:18:11;;;;;;;18.30;7.45;;;9.20;94.00;;;;;;5014538;28;20057;-83
2024/01/16 06:20:36;;;;;;;14.98;8.68;;;9.20;94.00;;;;;;5013625;28;20030;-83
2024/01/16 06:23:02;;;;;;;12.43;7.28;;;9.20;93.90;;;;;;5015070;28;20034;-79
2024/01/16 06:25:29;;;;;;;16.83;7.60;;;9.20;93.90;;;;;;5014692;28;20022;-78
2024/01/16 06:27:55;;;;;;;16.42;7.28;;;9.10;93.90;;;;;;4996492;28;20049;-78
2024/01/16 06:30:21;;;;;;;15.93;7.38;;;9.10;93.90;;;;;;5013911;28;20088;-84
2024/01/16 06:32:48;;;;;;;17.13;8.27;;;9.20;94.00;;;;;;5014099;28;20085;-83
2024/01/16 06:35:15;;;;;;;15.88;7.75;;;9.20;93.90;;;;;;5013808;28;20042;-83
2024/01/16 06:37:41;;;;;;;21.17;7.45;;;9.20;94.00;;;;;;5012135;28;20041;-83
2024/01/16 06:40:07;;;;;;;14.25;8.68;;;9.10;93.80;;;;;;4995806;28;20030;-77
2024/01/16 06:42:33;;;;;;;15.55;7.43;;;9.10;93.60;;;;;;5012734;28;20057;-75
2024/01/16 06:44:59;;;;;;;18.48;7.82;;;9.10;93.80;;;;;;5012657;28;20490;-75
2024/01/16 06:47:25;;;;;;;18.52;8.30;;;9.20;93.90;;;;;;5012712;28;20118;-75
2024/01/16 06:49:50;;;;;;;17.73;7.93;;;9.20;93.90;;;;;;4985167;28;20150;-76
2024/01/16 06:52:16;;;;;;;12.48;8.05;;;9.20;93.80;;;;;;4993469;28;20041;-77
2024/01/16 06:54:41;;;;;;;19.38;8.10;;;9.20;93.90;;;;;;4993257;28;20034;-75
2024/01/16 06:57:07;;;;;;;16.08;7.82;;;9.20;93.90;;;;;;4993612;28;20394;-75
2024/01/16 06:59:33;;;;;;;14.65;8.00;;;9.20;93.90;;;;;;4993718;28;20035;-78
2024/01/16 07:01:59;;;;;;;19.15;7.88;;;9.40;93.60;;;;;;4993163;28;20092;-76
2024/01/16 07:04:25;;;;;;;13.77;7.90;;;9.70;93.80;;;;;;4993679;28;20037;-77
2024/01/16 07:06:50;;;;;;;16.98;7.97;;;10.10;93.20;;;;;;4993735;28;20051;-76
2024/01/16 07:09:18;;;;;;;17.17;7.95;;;10.40;92.50;;;;;;4995088;28;20045;-78
2024/01/16 07:11:43;;;;;;;14.45;7.78;;;10.70;92.10;;;;;;4992929;28;20027;-76
2024/01/16 07:14:10;;;;;;;15.90;7.68;;;11.10;91.90;;;;;;4992930;28;20047;-76
2024/01/16 07:16:35;;;;;;;14.10;7.95;;;11.40;91.50;;;;;;4993081;28;20026;-74
2024/01/16 07:19:02;;;;;;;14.85;7.65;;;11.80;91.20;;;;;;4992993;28;20105;-76
2024/01/16 07:21:28;;;;;;;14.00;7.28;;;12.30;90.90;;;;;;4993006;28;20026;-76
2024/01/16 07:23:54;;;;;;;11.85;7.47;;;12.70;90.40;;;;;;4992818;28;20382;-76
2024/01/16 07:26:20;;;;;;;21.45;8.35;;;13.10;89.70;;;;;;4992954;28;20482;-74
2024/01/16 07:28:47;;;;;;;18.50;7.68;;;13.30;89.10;;;;;;4994057;28;20042;-76
2024/01/16 07:31:14;;;;;;;16.02;7.82;;;13.40;87.60;;;;;;4997421;28;20039;-75
2024/01/16 07:33:39;;;;;;;13.65;7.95;;;13.60;87.40;;;;;;4997076;28;20495;-76
2024/01/16 07:36:06;;;;;;;19.70;9.38;;;13.90;86.80;;;;;;4997134;28;20038;-76
2024/01/16 07:38:32;;;;;;;17.98;8.35;;;14.20;86.00;;;;;;4998162;28;20018;-76
2024/01/16 07:40:58;;;;;;;15.18;7.82;;;14.50;85.00;;;;;;4997002;28;20043;-76
2024/01/16 07:43:24;;;;;;;12.48;7.60;;;14.70;83.90;;;;;;4979352;28;20457;-77
2024/01/16 07:45:50;;;;;;;16.00;7.82;;;14.60;83.30;;;;;;4997078;28;20118;-76
2024/01/16 07:48:15;;;;;;;18.48;8.40;;;13.80;84.20;;;;;;4996939;28;20117;-75
2024/01/16 07:50:45;;;;;;;18.20;8.73;;;13.20;86.20;;;;;;5013051;28;20046;-77
2024/01/16 07:53:11;;;;;;;19.98;9.10;;;12.70;87.50;;;;;;5016610;28;20038;-76
2024/01/16 07:55:37;;;;;;;18.85;8.82;;;12.30;88.60;;;;;;5016104;28;20446;-77
2024/01/16 07:58:04;;;;;;;22.20;8.60;;;12.00;88.90;;;;;;5016181;28;20050;-75
2024/01/16 08:00:30;;;;;;;21.38;8.35;;;11.80;89.80;;;;;;4998369;28;20112;-75
2024/01/16 08:02:56;;;;;;;16.77;8.45;;;11.50;90.00;;;;;;5015842;28;20529;-75
2024/01/16 08:05:25;;;;;;;16.92;8.23;;;11.40;90.20;;;;;;5015972;28;20397;-78
2024/01/16 08:07:51;;;;;;;16.95;8.07;;;11.40;90.20;;;;;;5015606;28;20129;-74
2024/01/16 08:10:17;;;;;;;17.02;8.23;;;11.30;90.30;;;;;;5015983;28;20065;-76
2024/01/16 08:12:43;;;;;;;17.45;8.52;;;11.20;90.40;;;;;;5015748;28;20045;-75
2024/01/16 08:15:09;;;;;;;15.93;8.07;;;11.20;90.40;;;;;;5015572;28;20022;-75
2024/01/16 08:17:35;;;;;;;19.85;8.82;;;11.10;90.40;;;;;;5015823;28;20064;-75
2024/01/16 08:20:00;;;;;;;16.15;7.65;;;11.00;90.40;;;;;;5016754;28;20030;-74
2024/01/16 08:22:26;;;;;;;19.58;8.38;;;11.00;90.50;;;;;;5016676;28;20030;-74
2024/01/16 08:24:52;;;;;;;35.70;9.18;;;11.00;90.60;;;;;;5016616;28;20562;-74
2024/01/16 08:27:19;;;;;;;18.02;8.63;;;11.00;90.60;;;;;;5016149;28;20044;-73
2024/01/16 08:29:45;;;;;;;22.92;8.88;;;11.00;90.70;;;;;;5015332;28;20033;-74
2024/01/16 08:32:10;;;;;;;22.30;9.70;;;11.00;90.70;;;;;;5015387;28;20032;-76
2024/01/16 08:34:36;;;;;;;17.63;8.63;;;11.10;90.80;;;;;;5015192;28;20485;-75
2024/01/16 08:37:04;;;;;;;22.63;8.57;;;11.10;90.90;;;;;;4997684;28;20072;-75
2024/01/16 08:39:33;;;;;;;19.98;8.82;;;11.20;90.90;;;;;;5015261;28;20081;-74
2024/01/16 08:41:58;;;;;;;20.25;8.95;;;11.20;90.90;;;;;;5013761;28;20053;-74
2024/01/16 08:44:24;;;;;;;19.65;9.20;;;11.30;90.80;;;;;;5014830;28;20033;-75
2024/01/16 08:46:50;;;;;;;14.75;8.38;;;11.30;90.90;;;;;;5015023;28;20097;-75
2024/01/16 08:49:15;;;;;;;20.30;10.68;;;11.40;90.90;;;;;;5014943;28;20046;-74
2024/01/16 08:51:41;;;;;;;19.77;8.88;;;11.40;90.90;;;;;;5015100;28;20026;-75
2024/01/16 08:54:07;;;;;;;22.90;8.75;;;11.50;90.90;;;;;;5014701;28;20486;-75
2024/01/16 08:56:33;;;;;;;18.70;8.43;;;11.50;91.00;;;;;;5014931;28;20485;-74
2024/01/16 08:58:58;;;;;;;20.95;8.57;;;11.50;90.90;;;;;;5014454;28;20494;-75
2024/01/16 09:01:24;;;;;;;19.02;8.50;;;11.60;91.10;;;;;;5015209;28;20120;-74
2024/01/16 09:03:51;;;;;;;19.50;8.90;;;11.70;91.00;;;;;;5015659;28;20037;-74
2024/01/16 09:06:17;;;;;;;19.10;9.80;;;11.70;91.00;;;;;;5014853;28;20038;-74
2024/01/16 09:08:44;;;;;;;21.05;8.80;;;11.80;90.90;;;;;;5014487;28;20033;-76
2024/01/16 09:11:11;;;;;;;17.83;8.20;;;11.90;91.20;;;;;;4997471;28;20034;-75
2024/01/16 09:13:37;;;;;;;20.63;8.43;;;12.00;91.00;;;;;;5015200;28;20582;-75
2024/01/16 09:16:04;;;;;;;20.15;8.60;;;12.10;91.10;;;;;;5015203;28;20041;-75
2024/01/16 09:18:29;;;;;;;19.10;8.25;;;12.10;90.90;;;;;;5014350;28;20101;-76
2024/01/16 09:20:55;;;;;;;21.77;8.68;;;12.20;90.90;;;;;;5014261;28;20518;-74
2024/01/16 09:23:21;;;;;;;19.75;8.57;;;12.30;90.90;;;;;;5014311;28;20036;-74
2024/01/16 09:25:47;;;;;;;22.85;8.45;;;12.40;90.90;;;;;;5014338;28;20458;-75
2024/01/16 09:28:12;;;;;;;20.17;8.27;;;12.50;90.80;;;;;;5014258;28;20041;-77
2024/01/16 09:30:38;;;;;;;21.95;8.90;;;12.50;90.70;;;;;;5014388;28;20045;-75
2024/01/16 09:33:06;;;;;;;17.83;8.70;;;12.60;90.70;;;;;;5014176;28;20046;-75
2024/01/16 09:35:32;;;;;;;26.75;7.80;;;12.70;90.60;;;;;;5014251;28;20026;-76
2024/01/16 09:37:59;;;;;;;20.23;8.43;;;12.80;90.60;;;;;;5014146;28;20070;-76
2024/01/16 09:40:26;;;;;;;20.80;8.93;;;12.80;90.60;;;;;;5014277;28;20041;-75
2024/01/16 09:42:52;;;;;;;20.83;8.63;;;12.90;90.60;;;;;;5014453;28;20038;-75
2024/01/16 09:45:21;;;;;;;20.63;9.00;;;13.00;90.40;;;;;;5014095;28;20109;-76
2024/01/16 09:47:52;;;;;;;19.90;8.95;;;13.10;90.40;;;;;;5012606;28;20052;-74
2024/01/16 09:50:19;;;;;;;20.00;8.35;;;13.10;90.30;;;;;;5014094;28;20071;-75
2024/01/16 09:52:49;;;;;;;25.63;9.10;;;13.30;90.20;;;;;;5013536;28;20485;-75
2024/01/16 09:55:17;;;;;;;18.50;8.60;;;13.40;90.20;;;;;;5013937;28;20398;-76
2024/01/16 09:57:46;;;;;;;16.20;8.13;;;13.40;90.10;;;;;;5014254;28;20030;-75
2024/01/16 10:00:12;;;;;;;19.70;9.40;;;13.50;90.10;;;;;;5013791;28;20533;-75
2024/01/16 10:02:42;;;;;;;15.50;8.65;;;13.60;89.90;;;;;;4996139;28;20038;-75
2024/01/16 10:05:09;;;;;;;20.80;8.60;;;13.70;89.90;;;;;;4996097;28;20539;-75
2024/01/16 10:07:39;;;;;;;17.67;8.95;;;13.70;89.80;;;;;;5013854;28;20046;-75
2024/01/16 10:10:06;;;;;;;21.77;8.05;;;13.80;89.70;;;;;;5013671;28;20058;-75
2024/01/16 10:12:32;;;;;;;18.00;8.55;;;13.90;89.50;;;;;;5013936;28;20101;-75
2024/01/16 10:14:59;;;;;;;23.67;8.45;;;14.00;89.40;;;;;;5012296;28;20030;-74
2024/01/16 10:17:38;;;;;;;31.67;10.23;;;14.10;89.20;;;;;;5013640;28;20493;-73
2024/01/16 10:20:05;;;;;;;19.10;7.78;;;14.10;89.60;;;;;;5013193;28;20038;-75
2024/01/16 10:22:31;;;;;;;19.25;8.70;;;14.20;89.30;;;;;;5013647;28;20116;-74
2024/01/16 10:25:05;;;;;;;24.52;9.40;;;14.20;89.30;;;;;;5013356;28;20550;-75
2024/01/16 10:27:35;;;;;;;23.52;9.27;;;14.30;89.40;;;;;;5013180;28;20044;-75
2024/01/16 10:30:02;;;;;;;21.08;9.23;;;14.40;89.30;;;;;;5012919;28;20041;-75
2024/01/16 10:32:35;;;;;;;21.98;9.15;;;14.50;89.50;;;;;;5013114;28;20034;-74
2024/01/16 10:35:10;;;;;;;23.13;8.35;;;14.70;89.00;;;;;;5012244;28;20068;-75
2024/01/16 10:37:47;;;;;;;22.05;8.20;;;14.90;89.10;;;;;;4995402;28;20398;-75
2024/01/16 10:40:20;;;;;;;23.58;8.77;;;14.90;89.10;;;;;;5012752;28;20140;-74
2024/01/16 10:42:46;;;;;;;23.48;8.18;;;15.10;89.10;;;;;;5013100;28;20089;-75
2024/01/16 10:45:19;;;;;;;24.35;8.48;;;15.20;89.10;;;;;;5012730;28;20524;-74
2024/01/16 10:47:46;;;;;;;21.90;9.18;;;15.30;89.10;;;;;;5012940;28;20038;-75
2024/01/16 10:50:12;;;;;;;24.42;9.43;;;15.30;89.30;;;;;;5013105;28;20465;-76
2024/01/16 10:52:47;;;;;;;19.17;7.68;;;15.40;89.10;;;;;;5011954;28;20058;-75
2024/01/16 10:55:23;;;;;;;30.80;9.20;;;15.60;89.30;;;;;;5012609;28;20030;-75
2024/01/16 10:57:52;;;;;;;20.48;7.85;;;15.70;88.80;;;;;;5012728;28;20045;-75
2024/01/16 11:00:22;;;;;;;26.50;8.80;;;15.90;89.10;;;;;;5012703;28;20034;-75
2024/01/16 11:02:57;;;;;;;28.15;8.07;;;16.10;89.00;;;;;;4995126;28;20084;-75
2024/01/16 11:05:23;;;;;;;18.42;6.35;;;16.30;87.90;;;;;;4994370;28;20080;-74
2024/01/16 11:07:50;;;;;;;20.63;5.65;;;16.40;88.30;;;;;;5012411;28;20046;-76
2024/01/16 11:10:17;;;;;;;16.42;4.65;;;16.50;88.00;;;;;;5012483;28;20026;-75
2024/01/16 11:12:45;;;;;;;27.25;5.82;;;16.60;88.30;;;;;;5012888;28;20033;-73
2024/01/16 11:15:12;;;;;;;17.67;5.07;;;16.70;88.00;;;;;;5012918;28;20037;-75
2024/01/16 11:17:39;;;;;;;18.98;5.07;;;16.70;87.80;;;;;;5013240;28;20080;-75
2024/01/16 11:20:09;;;;;;;15.73;3.97;;;16.70;88.00;;;;;;5012684;28;20026;-75
2024/01/16 11:22:39;;;;;;;18.90;4.55;;;16.70;88.10;;;;;;5012785;28;20525;-75
2024/01/16 11:25:09;;;;;;;15.65;5.20;;;16.70;88.20;;;;;;4995454;28;20056;-75
2024/01/16 11:27:37;;;;;;;17.50;3.78;;;16.60;88.10;;;;;;5012479;28;20042;-74
2024/01/16 11:30:06;;;;;;;17.73;4.22;;;16.60;88.40;;;;;;5012526;28;20554;-74
2024/01/16 11:32:34;;;;;;;16.20;4.63;;;16.50;88.40;;;;;;5012443;28;20034;-75
2024/01/16 11:35:00;;;;;;;18.40;4.75;;;16.50;88.60;;;;;;5013140;28;20114;-74
2024/01/16 11:37:32;;;;;;;21.08;4.90;;;16.70;88.20;;;;;;5013319;28;20494;-74
2024/01/16 11:40:16;;;;;;;22.48;5.22;;;16.90;88.60;;;;;;5012540;28;20430;-75
2024/01/16 11:42:43;;;;;;;21.73;5.28;;;17.00;87.60;;;;;;5012790;28;20034;-75
2024/01/16 11:45:27;;;;;;;19.33;5.32;;;17.20;87.10;;;;;;5012578;28;20208;-74
2024/01/16 11:48:11;;;;;;;23.45;5.07;;;17.20;86.90;;;;;;4994658;28;20112;-75
2024/01/16 11:50:38;;;;;;;16.20;4.78;;;17.10;87.10;;;;;;5012426;28;20061;-76
2024/01/16 11:53:06;;;;;;;19.58;4.43;;;17.00;87.20;;;;;;4994833;28;20040;-75
2024/01/16 11:55:33;;;;;;;16.27;4.38;;;17.00;87.50;;;;;;4994664;28;20046;-74
2024/01/16 11:58:24;;;;;;;20.00;4.63;;;16.90;87.60;;;;;;5012290;28;20041;-74
2024/01/16 12:00:51;;;;;;;20.55;4.18;;;17.00;87.20;;;;;;5012500;28;20553;-75
2024/01/16 12:03:20;;;;;;;20.48;4.43;;;17.20;86.80;;;;;;5012549;28;20026;-76
2024/01/16 12:05:56;;;;;;;16.15;4.40;;;17.30;86.50;;;;;;5012511;28;20061;-74
2024/01/16 12:08:22;;;;;;;21.75;4.70;;;17.40;86.30;;;;;;5012013;28;20042;-74
2024/01/16 12:10:48;;;;;;;17.45;4.70;;;17.60;86.00;;;;;;5011605;28;20034;-75
2024/01/16 12:13:14;;;;;;;16.25;4.63;;;17.60;85.10;;;;;;5012309;28;20065;-74
2024/01/16 12:15:41;;;;;;;18.52;6.65;;;17.60;85.20;;;;;;5014045;28;20030;-76
2024/01/16 12:18:07;;;;;;;23.38;6.00;;;17.60;85.00;;;;;;5015459;28;20121;-75
2024/01/16 12:20:35;;;;;;;22.23;5.55;;;17.60;85.00;;;;;;4998384;28;20227;-75
2024/01/16 12:23:03;;;;;;;13.60;4.05;;;17.60;84.80;;;;;;5015524;28;20034;-75
2024/01/16 12:25:30;;;;;;;17.67;5.05;;;17.60;84.80;;;;;;5015787;28;20038;-75
2024/01/16 12:28:00;;;;;;;21.73;4.65;;;17.50;84.80;;;;;;5016020;28;20046;-75
2024/01/16 12:30:34;;;;;;;19.27;4.40;;;17.50;84.80;;;;;;5015806;28;20053;-75
2024/01/16 12:33:11;;;;;;;19.33;4.97;;;17.50;84.50;;;;;;5015877;28;20026;-74